FBSK

Details ICAO FBSK (GBE)
Name Gaborone International Airport Sir Sereste Khama
Region Botswana
Timezone Africa/Gaborone (UTC+2.0)
Plans Departing 116
Arriving 110
Stats Elevation 3,298 ft / 1,005 m (AMSL)
Location -24.553100° 25.922800°
Runways 1
Magnetic Variation 15.748° W
Sunrise 2019-02-22 04:08:28 UTC / 2019-02-22 06:08:28 Local
Sunset 2019-02-22 16:54:12 UTC / 2019-02-22 18:54:12 Local
Advertisement - Login to hide

Runways

ID Width Length Bearing (true/mag) Surface Threshold Overrun Markings Lighting
08 148 ft / 45 m 13,124 ft / 4,000 m 61.48° / 77.23° CONCRETE 0 ft / 0 m 0 ft / 0 m PREC-APP EDGE THRESHOLD ALSF-II
26 148 ft / 45 m 13,124 ft / 4,000 m 241.47° / 257.22° CONCRETE 0 ft / 0 m 0 ft / 0 m PREC-APP EDGE THRESHOLD MALS

Map

Weather


0- 5 10 15 20 25 30 35+ Temperature / °C

Clouds and Precipitation
Forecast for 2019-02-22 12:00 UTC. Updated 4 hours ago

Ground ~20,000 ft ~40,000 ft Winds

METAR

FBSK 221300Z VRB06KT 9999 SCT030 34/12 Q1018 NOSIG

TAF

Not found

Frequencies

Approach 128.20 MHz Gaborone Approach
Ground 121.90 MHz Khama Ground
Recorded 126.60 MHz ATIS
Tower 118.30 MHz Khama Tower
Warning: Do not use this data for real-world aviation or navigation. No guarantee of current accuracy is given.